createdAt,value
2019-04-05T00:00:49.014Z,6.40
2019-04-05T00:01:49.008Z,5.40
2019-04-05T00:02:49.004Z,5.00
2019-04-05T00:03:48.995Z,5.00
2019-04-05T00:04:48.989Z,5.90
2019-04-05T00:05:48.982Z,3.50
2019-04-05T00:06:48.978Z,4.60
2019-04-05T00:07:48.972Z,4.40
2019-04-05T00:08:48.964Z,3.80
2019-04-05T00:09:48.959Z,4.60
2019-04-05T00:10:48.951Z,5.00
2019-04-05T00:11:48.947Z,6.80
2019-04-05T00:12:48.945Z,5.20
2019-04-05T00:13:48.980Z,4.80
2019-04-05T00:14:48.927Z,5.60
2019-04-05T00:15:48.920Z,7.20
2019-04-05T00:16:48.913Z,5.40
2019-04-05T00:17:48.907Z,5.20
2019-04-05T00:18:48.901Z,5.30
2019-04-05T00:19:48.898Z,6.40
2019-04-05T00:20:48.889Z,6.60
2019-04-05T00:21:48.883Z,3.90
2019-04-05T00:22:48.876Z,4.10
2019-04-05T00:23:48.870Z,4.40
2019-04-05T00:24:48.862Z,4.10
2019-04-05T00:25:48.858Z,4.50
2019-04-05T00:26:48.850Z,6.50
2019-04-05T00:27:48.844Z,5.70
2019-04-05T00:28:51.564Z,7.10
2019-04-05T00:29:48.836Z,5.50
2019-04-05T00:30:48.825Z,6.00
2019-04-05T00:31:48.820Z,7.30
2019-04-05T00:32:48.813Z,6.80
2019-04-05T00:33:48.808Z,4.90
2019-04-05T00:34:48.800Z,5.70
2019-04-05T00:35:48.795Z,6.50
2019-04-05T00:36:48.787Z,7.00
2019-04-05T00:37:48.783Z,6.60
2019-04-05T00:38:48.777Z,6.40
2019-04-05T00:39:48.769Z,6.50
2019-04-05T00:40:48.769Z,7.10
2019-04-05T00:41:48.757Z,8.30
2019-04-05T00:42:48.750Z,6.50
2019-04-05T00:43:48.746Z,8.10
2019-04-05T00:44:48.808Z,6.80
2019-04-05T00:45:48.732Z,6.40
2019-04-05T00:46:48.726Z,7.20
2019-04-05T00:47:48.718Z,7.00
2019-04-05T00:48:48.711Z,9.00
2019-04-05T00:49:48.704Z,6.70
2019-04-05T00:50:48.700Z,6.20
2019-04-05T00:51:48.698Z,7.40
2019-04-05T00:52:48.685Z,4.90
2019-04-05T00:53:48.679Z,5.10
2019-04-05T00:54:48.673Z,5.60
2019-04-05T00:55:48.719Z,4.40
2019-04-05T00:56:48.661Z,5.00
2019-04-05T00:57:49.540Z,5.90
2019-04-05T00:58:48.647Z,7.00
2019-04-05T00:59:48.643Z,6.20
2019-04-05T01:00:48.635Z,6.80
2019-04-05T01:01:48.637Z,5.40
2019-04-05T01:02:48.622Z,4.90
2019-04-05T01:03:48.617Z,6.60
2019-04-05T01:04:48.609Z,5.60
2019-04-05T01:05:48.606Z,6.70
2019-04-05T01:06:48.604Z,5.80
2019-04-05T01:07:48.593Z,6.20
2019-04-05T01:08:48.585Z,7.80
2019-04-05T01:09:48.577Z,6.40
2019-04-05T01:10:48.572Z,7.30
2019-04-05T01:11:48.567Z,7.00
2019-04-05T01:12:48.558Z,7.20
2019-04-05T01:13:48.560Z,6.10
2019-04-05T01:14:48.545Z,6.30
2019-04-05T01:15:48.541Z,6.40
2019-04-05T01:16:48.532Z,5.50
2019-04-05T01:17:48.526Z,5.50
2019-04-05T01:18:48.525Z,5.50
2019-04-05T01:19:48.514Z,6.90
2019-04-05T01:20:48.508Z,8.90
2019-04-05T01:21:48.500Z,6.50
2019-04-05T01:22:48.499Z,7.40
2019-04-05T01:23:48.489Z,6.70
2019-04-05T01:24:48.483Z,6.60
2019-04-05T01:25:48.476Z,7.90
2019-04-05T01:26:48.471Z,7.00
2019-04-05T01:27:48.658Z,5.90
2019-04-05T01:28:48.457Z,6.20
2019-04-05T01:29:48.452Z,6.50
2019-04-05T01:30:48.444Z,6.80
2019-04-05T01:31:48.440Z,7.60
2019-04-05T01:32:48.431Z,6.20
2019-04-05T01:33:48.428Z,6.90
2019-04-05T01:34:48.420Z,7.40
2019-04-05T01:35:48.413Z,8.60
2019-04-05T01:36:48.408Z,8.10
2019-04-05T01:37:48.403Z,6.80
2019-04-05T01:38:48.395Z,8.70
2019-04-05T01:39:48.388Z,10.10
2019-04-05T01:40:48.383Z,8.00
2019-04-05T01:41:48.377Z,9.40
2019-04-05T01:42:48.370Z,8.70
2019-04-05T01:43:48.365Z,6.20
2019-04-05T01:44:48.357Z,6.70
2019-04-05T01:45:54.009Z,6.20
2019-04-05T01:46:48.345Z,5.90
2019-04-05T01:47:48.342Z,7.80
2019-04-05T01:48:48.331Z,6.60
2019-04-05T01:49:48.326Z,7.70
2019-04-05T01:50:48.319Z,6.90
2019-04-05T01:51:48.316Z,7.90
2019-04-05T01:52:48.310Z,10.90
2019-04-05T01:53:48.300Z,7.40
2019-04-05T01:54:48.294Z,9.30
2019-04-05T01:55:48.290Z,8.50
2019-04-05T01:56:48.283Z,7.80
2019-04-05T01:57:48.273Z,8.50
2019-04-05T01:58:48.271Z,12.90
2019-04-05T01:59:48.262Z,8.80
2019-04-05T02:00:48.255Z,6.40
2019-04-05T02:01:48.249Z,6.90
2019-04-05T02:02:48.243Z,7.10
2019-04-05T02:03:48.253Z,7.40
2019-04-05T02:04:48.230Z,8.60
2019-04-05T02:05:48.226Z,15.70
2019-04-05T02:06:48.218Z,9.20
2019-04-05T02:07:48.212Z,8.40
2019-04-05T02:08:48.207Z,8.50
2019-04-05T02:09:48.198Z,9.40
2019-04-05T02:10:48.192Z,8.80
2019-04-05T02:11:48.187Z,10.80
2019-04-05T02:12:48.180Z,6.30
2019-04-05T02:13:48.176Z,7.30
2019-04-05T02:14:48.169Z,7.20
2019-04-05T02:15:48.160Z,8.70
2019-04-05T02:16:48.154Z,8.70
2019-04-05T02:17:48.151Z,12.10
2019-04-05T02:18:48.146Z,8.20
2019-04-05T02:19:48.136Z,6.50
2019-04-05T02:20:48.129Z,9.60
2019-04-05T02:21:48.122Z,10.60
2019-04-05T02:22:48.117Z,9.80
2019-04-05T02:23:48.112Z,7.30
2019-04-05T02:24:48.103Z,7.30
2019-04-05T02:25:48.098Z,7.80
2019-04-05T02:26:48.095Z,7.00
2019-04-05T02:27:48.086Z,10.80
2019-04-05T02:28:48.084Z,10.30
2019-04-05T02:29:48.073Z,12.80
2019-04-05T02:30:48.068Z,11.10
2019-04-05T02:31:48.063Z,9.10
2019-04-05T02:32:48.056Z,11.50
2019-04-05T02:33:48.049Z,12.60
2019-04-05T02:34:48.044Z,9.50
2019-04-05T02:35:48.050Z,11.40
2019-04-05T02:36:48.030Z,6.60
2019-04-05T02:37:48.025Z,10.10
2019-04-05T02:38:48.022Z,6.70
2019-04-05T02:39:48.011Z,6.70
2019-04-05T02:40:48.008Z,6.10
2019-04-05T02:41:48.000Z,9.50
2019-04-05T02:42:47.996Z,11.80
2019-04-05T02:43:47.986Z,12.30
2019-04-05T02:44:47.979Z,11.30
2019-04-05T02:45:47.974Z,12.50
2019-04-05T02:46:47.970Z,11.80
2019-04-05T02:47:51.624Z,11.10
2019-04-05T02:48:47.956Z,11.20
2019-04-05T02:49:47.947Z,10.90
2019-04-05T02:50:47.945Z,12.80
2019-04-05T02:51:47.940Z,13.70
2019-04-05T02:52:47.929Z,11.70
2019-04-05T02:53:47.929Z,15.40
2019-04-05T02:54:47.919Z,12.10
2019-04-05T02:55:47.914Z,12.60
2019-04-05T02:56:47.905Z,14.10
2019-04-05T02:57:47.899Z,10.00
2019-04-05T02:58:47.892Z,14.80
2019-04-05T02:59:47.891Z,9.30
2019-04-05T03:00:47.884Z,11.40
2019-04-05T03:01:47.874Z,14.20
2019-04-05T03:02:47.870Z,15.60
2019-04-05T03:03:47.865Z,11.30
2019-04-05T03:04:47.857Z,16.30
2019-04-05T03:05:47.849Z,13.50
2019-04-05T03:06:47.845Z,12.00
2019-04-05T03:07:47.838Z,13.80
2019-04-05T03:08:47.830Z,13.30
2019-04-05T03:09:47.826Z,10.50
2019-04-05T03:10:47.818Z,13.90
2019-04-05T03:11:47.813Z,10.90
2019-04-05T03:12:47.807Z,10.30
2019-04-05T03:13:47.800Z,8.00
2019-04-05T03:14:47.795Z,14.60
2019-04-05T03:15:47.790Z,9.10
2019-04-05T03:16:47.781Z,15.70
2019-04-05T03:17:47.777Z,12.50
2019-04-05T03:18:47.768Z,13.70
2019-04-05T03:19:47.762Z,14.20
2019-04-05T03:20:47.755Z,18.00
2019-04-05T03:21:47.749Z,14.20
2019-04-05T03:22:47.744Z,19.00
2019-04-05T03:23:47.738Z,16.80
2019-04-05T03:24:47.735Z,13.60
2019-04-05T03:25:48.232Z,11.60
2019-04-05T03:26:47.719Z,11.60
2019-04-05T03:27:47.716Z,17.40
2019-04-05T03:28:47.709Z,18.00
2019-04-05T03:29:47.704Z,20.20
2019-04-05T03:30:47.694Z,11.80
2019-04-05T03:31:47.697Z,11.90
2019-04-05T03:32:47.683Z,12.70
2019-04-05T03:33:47.674Z,12.40
2019-04-05T03:34:47.667Z,13.50
2019-04-05T03:35:47.665Z,14.50
2019-04-05T03:36:49.833Z,20.60
2019-04-05T03:37:47.649Z,14.70
2019-04-05T03:38:47.644Z,15.00
2019-04-05T03:39:47.635Z,14.10
2019-04-05T03:40:47.627Z,13.00
2019-04-05T03:41:47.629Z,13.10
2019-04-05T03:42:47.616Z,10.90
2019-04-05T03:43:47.611Z,18.00
2019-04-05T03:44:47.625Z,21.70
2019-04-05T03:45:47.595Z,19.80
2019-04-05T03:46:56.505Z,12.50
2019-04-05T03:47:47.585Z,11.80
2019-04-05T03:48:47.577Z,15.60
2019-04-05T03:49:47.569Z,19.40
2019-04-05T03:50:47.575Z,20.90
2019-04-05T03:51:47.563Z,18.20
2019-04-05T03:52:47.550Z,13.10
2019-04-05T03:53:47.549Z,14.00
2019-04-05T03:54:47.573Z,16.70
2019-04-05T03:55:47.532Z,18.60
2019-04-05T03:56:47.526Z,17.00
2019-04-05T03:57:47.522Z,25.10
2019-04-05T03:58:47.517Z,15.10
2019-04-05T03:59:47.508Z,19.70
2019-04-05T04:00:47.501Z,19.20
2019-04-05T04:01:47.496Z,20.90
2019-04-05T04:02:47.487Z,16.20
2019-04-05T04:03:47.533Z,17.80
2019-04-05T04:04:47.476Z,22.50
2019-04-05T04:05:47.469Z,19.80
2019-04-05T04:06:47.462Z,22.50
2019-04-05T04:07:47.456Z,19.30
2019-04-05T04:08:47.449Z,25.40
2019-04-05T04:09:47.443Z,20.00
2019-04-05T04:10:47.434Z,27.10
2019-04-05T04:11:47.433Z,15.60
2019-04-05T04:12:47.474Z,20.00
2019-04-05T04:13:47.417Z,15.30
2019-04-05T04:14:47.409Z,15.70
2019-04-05T04:15:47.402Z,15.80
2019-04-05T04:16:47.396Z,19.00
2019-04-05T04:17:47.389Z,19.80
2019-04-05T04:18:47.386Z,19.00
2019-04-05T04:19:47.376Z,19.80
2019-04-05T04:20:47.370Z,17.50
2019-04-05T04:21:47.366Z,22.30
2019-04-05T04:22:48.563Z,18.00
2019-04-05T04:23:47.356Z,21.20
2019-04-05T04:24:47.350Z,22.80
2019-04-05T04:25:47.343Z,22.50
2019-04-05T04:26:47.333Z,26.40
2019-04-05T04:27:47.325Z,20.00
2019-04-05T04:28:47.319Z,23.20
2019-04-05T04:29:47.320Z,21.30
2019-04-05T04:30:47.308Z,24.00
2019-04-05T04:31:47.300Z,19.10
2019-04-05T04:32:47.295Z,25.40
2019-04-05T04:33:47.286Z,22.10
2019-04-05T04:34:47.281Z,25.60
2019-04-05T04:35:47.281Z,22.90
2019-04-05T04:36:47.267Z,20.20
2019-04-05T04:37:47.266Z,24.00
2019-04-05T04:38:47.254Z,24.10
2019-04-05T04:39:47.251Z,25.10
2019-04-05T04:40:47.241Z,29.60
2019-04-05T04:41:47.236Z,22.10
2019-04-05T04:42:47.230Z,27.70
2019-04-05T04:43:47.224Z,22.90
2019-04-05T04:44:47.218Z,24.30
2019-04-05T04:45:47.211Z,26.70
2019-04-05T04:46:48.211Z,24.70
2019-04-05T04:47:47.198Z,29.10
2019-04-05T04:48:47.189Z,25.90
2019-04-05T04:49:47.186Z,25.80
2019-04-05T04:50:47.177Z,24.10
2019-04-05T04:51:47.174Z,25.50
2019-04-05T04:52:47.165Z,25.80
2019-04-05T04:53:47.157Z,21.50
2019-04-05T04:54:47.149Z,27.60
2019-04-05T04:55:47.147Z,27.00
2019-04-05T04:56:47.139Z,32.20
2019-04-05T04:57:47.132Z,23.40
2019-04-05T04:58:47.125Z,28.50
2019-04-05T04:59:47.119Z,26.60
2019-04-05T05:00:47.113Z,23.10
2019-04-05T05:01:47.106Z,23.70
2019-04-05T05:02:47.102Z,25.10
2019-04-05T05:03:47.095Z,20.80
2019-04-05T05:04:47.088Z,22.40
2019-04-05T05:05:47.081Z,24.40
2019-04-05T05:06:47.074Z,20.90
2019-04-05T05:07:47.068Z,21.00
2019-04-05T05:08:47.062Z,23.40
2019-04-05T05:09:47.056Z,28.40
2019-04-05T05:10:47.050Z,25.90
2019-04-05T05:11:47.045Z,27.20
2019-04-05T05:12:47.035Z,25.30
2019-04-05T05:13:47.032Z,28.60
2019-04-05T05:14:47.025Z,22.70
2019-04-05T05:15:47.019Z,23.20
2019-04-05T05:16:47.013Z,20.30
2019-04-05T05:17:57.913Z,26.90
2019-04-05T05:18:46.998Z,25.50
2019-04-05T05:19:46.993Z,21.50
2019-04-05T05:20:46.986Z,16.30
2019-04-05T05:21:46.981Z,21.40
2019-04-05T05:22:46.974Z,15.00
2019-04-05T05:23:46.968Z,16.40
2019-04-05T05:24:46.964Z,16.80
2019-04-05T05:25:47.089Z,20.80
2019-04-05T05:26:46.952Z,19.20
2019-04-05T05:27:46.942Z,25.20
2019-04-05T05:28:46.937Z,28.80
2019-04-05T05:29:46.928Z,29.60
2019-04-05T05:30:46.923Z,24.50
2019-04-05T05:31:46.917Z,19.80
2019-04-05T05:32:46.913Z,22.80
2019-04-05T05:33:46.907Z,23.40
2019-04-05T05:34:46.897Z,15.70
2019-04-05T05:35:46.894Z,22.30
2019-04-05T05:36:46.889Z,23.90
2019-04-05T05:37:46.881Z,26.50
2019-04-05T05:38:46.875Z,22.50
2019-04-05T05:39:46.869Z,26.70
2019-04-05T05:40:46.859Z,25.90
2019-04-05T05:41:46.857Z,22.30
2019-04-05T05:42:46.852Z,24.00
2019-04-05T05:43:46.845Z,24.70
2019-04-05T05:44:46.836Z,23.40
2019-04-05T05:45:46.829Z,26.80
2019-04-05T05:46:46.831Z,23.60
2019-04-05T05:47:52.128Z,27.60
2019-04-05T05:48:46.813Z,22.30
2019-04-05T05:49:46.805Z,18.90
2019-04-05T05:50:46.799Z,18.10
2019-04-05T05:51:46.795Z,18.20
2019-04-05T05:52:46.787Z,21.80
2019-04-05T05:53:46.780Z,23.40
2019-04-05T05:54:46.777Z,25.50
2019-04-05T05:55:46.775Z,22.20
2019-04-05T05:56:46.766Z,22.00
2019-04-05T05:57:46.756Z,24.20
2019-04-05T05:58:46.758Z,26.20
2019-04-05T05:59:46.744Z,23.90
2019-04-05T06:00:46.759Z,17.70
2019-04-05T06:01:46.734Z,21.00
2019-04-05T06:02:48.420Z,22.20
2019-04-05T06:03:46.721Z,23.40
2019-04-05T06:04:46.715Z,22.10
2019-04-05T06:05:46.710Z,23.60
2019-04-05T06:06:46.705Z,23.80
2019-04-05T06:07:46.699Z,19.80
2019-04-05T06:08:46.690Z,23.00
2019-04-05T06:09:47.775Z,21.60
2019-04-05T06:10:46.679Z,23.90
2019-04-05T06:11:46.677Z,30.30
2019-04-05T06:12:46.670Z,27.90
2019-04-05T06:13:46.661Z,27.20
2019-04-05T06:14:46.655Z,26.70
2019-04-05T06:15:46.650Z,26.70
2019-04-05T06:16:46.866Z,31.00
2019-04-05T06:17:46.636Z,27.30
2019-04-05T06:18:48.581Z,22.20
2019-04-05T06:19:46.625Z,25.70
2019-04-05T06:20:46.618Z,30.60
2019-04-05T06:21:46.612Z,22.90
2019-04-05T06:22:47.717Z,32.60
2019-04-05T06:23:46.606Z,27.20
2019-04-05T06:24:46.596Z,29.70
2019-04-05T06:25:46.588Z,23.00
2019-04-05T06:26:46.584Z,17.90
2019-04-05T06:27:46.578Z,18.60
2019-04-05T06:28:46.634Z,21.90
2019-04-05T06:29:46.566Z,21.90
2019-04-05T06:30:46.559Z,27.40
2019-04-05T06:31:46.553Z,23.90
2019-04-05T06:32:46.547Z,27.90
2019-04-05T06:33:46.540Z,22.60
2019-04-05T06:34:46.535Z,21.70
2019-04-05T06:35:46.529Z,20.50
2019-04-05T06:36:46.524Z,28.40
2019-04-05T06:37:46.521Z,31.60
2019-04-05T06:38:46.511Z,27.50
2019-04-05T06:39:46.511Z,24.40
2019-04-05T06:40:46.500Z,23.00
2019-04-05T06:41:46.495Z,21.90
2019-04-05T06:42:46.493Z,22.60
2019-04-05T06:43:46.483Z,25.60
2019-04-05T06:44:46.477Z,27.00
2019-04-05T06:45:46.502Z,26.70
2019-04-05T06:46:46.464Z,21.10
2019-04-05T06:47:46.459Z,22.90
2019-04-05T06:48:46.452Z,28.50
2019-04-05T06:49:46.445Z,27.90
2019-04-05T06:50:47.482Z,28.50
2019-04-05T06:51:46.433Z,26.70
2019-04-05T06:52:46.428Z,26.50
2019-04-05T06:53:46.421Z,29.30
2019-04-05T06:54:46.416Z,25.30
2019-04-05T06:55:46.410Z,33.10
2019-04-05T06:56:46.404Z,30.60
2019-04-05T06:57:46.404Z,30.50
2019-04-05T06:58:46.574Z,27.70
2019-04-05T06:59:46.391Z,31.40
2019-04-05T07:00:57.040Z,24.20
2019-04-05T07:01:46.374Z,18.60
2019-04-05T07:02:46.369Z,28.00
2019-04-05T07:03:46.367Z,32.00
2019-04-05T07:04:46.357Z,23.80
2019-04-05T07:05:46.351Z,23.70
2019-04-05T07:06:46.347Z,27.10
2019-04-05T07:07:46.338Z,27.90
2019-04-05T07:08:53.514Z,19.10
2019-04-05T07:09:46.328Z,22.00
2019-04-05T07:10:46.393Z,27.80
2019-04-05T07:11:46.317Z,25.90
2019-04-05T07:12:46.334Z,24.80
2019-04-05T07:13:46.305Z,26.90
2019-04-05T07:14:46.301Z,23.20
2019-04-05T07:15:46.293Z,26.50
2019-04-05T07:16:46.286Z,24.40
2019-04-05T07:17:46.282Z,23.20
2019-04-05T07:18:46.275Z,20.80
2019-04-05T07:19:46.269Z,22.10
2019-04-05T07:20:46.265Z,22.90
2019-04-05T07:21:46.258Z,18.00
2019-04-05T07:22:46.253Z,18.00
2019-04-05T07:23:46.246Z,20.60
2019-04-05T07:24:46.240Z,21.00
2019-04-05T07:25:46.235Z,21.30
2019-04-05T07:26:46.229Z,20.60
2019-04-05T07:27:46.227Z,20.20
2019-04-05T07:28:46.218Z,22.10
2019-04-05T07:29:46.215Z,19.30
2019-04-05T07:30:46.207Z,17.50
2019-04-05T07:31:46.203Z,19.00
2019-04-05T07:32:46.198Z,14.90
2019-04-05T07:33:46.195Z,16.60
2019-04-05T07:34:46.187Z,19.50
2019-04-05T07:35:46.179Z,19.80
2019-04-05T07:36:46.176Z,21.40
2019-04-05T07:37:46.170Z,17.10
2019-04-05T07:38:46.165Z,19.50
2019-04-05T07:39:46.159Z,14.90
2019-04-05T07:40:46.151Z,16.30
2019-04-05T07:41:46.148Z,23.20
2019-04-05T07:42:46.143Z,15.40
2019-04-05T07:43:46.139Z,18.80
2019-04-05T07:44:46.130Z,18.80
2019-04-05T07:45:46.222Z,18.60
2019-04-05T07:46:46.669Z,17.20
2019-04-05T07:47:46.117Z,19.50
2019-04-05T07:48:46.159Z,18.30
2019-04-05T07:49:46.105Z,20.80
2019-04-05T07:50:46.098Z,19.90
2019-04-05T07:51:46.093Z,17.20
2019-04-05T07:52:46.087Z,18.40
2019-04-05T07:53:46.083Z,19.00
2019-04-05T07:54:46.076Z,17.60
2019-04-05T07:55:46.071Z,18.00
2019-04-05T07:56:46.332Z,23.70
2019-04-05T07:57:46.060Z,16.40
2019-04-05T07:58:46.055Z,17.30
2019-04-05T07:59:46.049Z,19.10
2019-04-05T08:00:46.044Z,18.60
2019-04-05T08:01:46.040Z,15.30
2019-04-05T08:02:46.033Z,18.00
2019-04-05T08:03:46.027Z,18.50
2019-04-05T08:04:46.022Z,19.00
2019-04-05T08:05:46.017Z,20.40
2019-04-05T08:06:46.014Z,19.00
2019-04-05T08:07:46.005Z,19.00
2019-04-05T08:08:46.004Z,18.70
2019-04-05T08:09:45.996Z,20.00
2019-04-05T08:10:46.005Z,15.30
2019-04-05T08:11:45.987Z,16.10
2019-04-05T08:12:45.979Z,18.10
2019-04-05T08:13:45.972Z,16.60
2019-04-05T08:14:45.967Z,20.30
2019-04-05T08:15:45.961Z,20.20
2019-04-05T08:16:45.956Z,20.70
2019-04-05T08:17:45.951Z,22.40
2019-04-05T08:18:57.070Z,15.90
2019-04-05T08:19:45.941Z,20.90
2019-04-05T08:20:45.934Z,18.90
2019-04-05T08:21:45.929Z,18.10
2019-04-05T08:22:45.924Z,19.60
2019-04-05T08:23:45.919Z,20.60
2019-04-05T08:24:45.914Z,17.80
2019-04-05T08:25:45.909Z,20.40
2019-04-05T08:26:45.906Z,25.20
2019-04-05T08:27:45.899Z,22.60
2019-04-05T08:28:45.890Z,19.10
2019-04-05T08:29:45.884Z,22.50
2019-04-05T08:30:45.879Z,23.10
2019-04-05T08:31:45.877Z,22.00
2019-04-05T08:32:45.867Z,15.00
2019-04-05T08:33:45.862Z,24.30
2019-04-05T08:34:45.859Z,23.40
2019-04-05T08:35:45.860Z,21.90
2019-04-05T08:36:45.847Z,23.00
2019-04-05T08:37:45.842Z,25.10
2019-04-05T08:38:45.848Z,21.50
2019-04-05T08:39:45.830Z,21.10
2019-04-05T08:40:45.823Z,24.40
2019-04-05T08:41:45.818Z,19.30
2019-04-05T08:42:45.816Z,23.20
2019-04-05T08:43:47.178Z,17.60
2019-04-05T08:44:45.801Z,18.30
2019-04-05T08:45:45.797Z,18.50
2019-04-05T08:46:45.799Z,15.80
2019-04-05T08:47:45.788Z,21.10
2019-04-05T08:48:45.782Z,16.80
2019-04-05T08:49:45.776Z,20.20
2019-04-05T08:50:45.771Z,17.50
2019-04-05T08:51:45.766Z,17.10
2019-04-05T08:52:45.761Z,17.50
2019-04-05T08:53:45.758Z,16.90
2019-04-05T08:54:45.757Z,19.60
2019-04-05T08:55:45.746Z,19.40
2019-04-05T08:56:45.742Z,18.30
2019-04-05T08:57:47.970Z,19.70
2019-04-05T08:58:45.732Z,20.00
2019-04-05T08:59:45.724Z,17.10
2019-04-05T09:00:45.718Z,15.70
2019-04-05T09:01:45.713Z,17.20
2019-04-05T09:02:45.771Z,17.60
2019-04-05T09:03:45.704Z,13.60
2019-04-05T09:04:45.708Z,18.90
2019-04-05T09:05:45.693Z,13.60
2019-04-05T09:06:45.688Z,17.30
2019-04-05T09:07:45.682Z,15.90
2019-04-05T09:08:45.676Z,12.60
2019-04-05T09:09:45.672Z,12.70
2019-04-05T09:10:45.670Z,13.40
2019-04-05T09:11:45.663Z,13.00
2019-04-05T09:12:45.657Z,17.50
2019-04-05T09:13:45.651Z,14.60
2019-04-05T09:14:45.648Z,14.00
2019-04-05T09:15:45.642Z,14.10
2019-04-05T09:16:45.636Z,15.90
2019-04-05T09:17:45.632Z,13.30
2019-04-05T09:18:45.625Z,10.80
2019-04-05T09:19:45.620Z,11.20
2019-04-05T09:20:45.615Z,15.70
2019-04-05T09:21:45.612Z,12.00
2019-04-05T09:22:45.607Z,10.70
2019-04-05T09:23:45.636Z,12.60
2019-04-05T09:24:45.596Z,11.90
2019-04-05T09:25:45.590Z,14.60
2019-04-05T09:26:45.585Z,15.10
2019-04-05T09:27:45.579Z,13.80
2019-04-05T09:28:45.575Z,15.70
2019-04-05T09:29:45.571Z,13.10
2019-04-05T09:30:45.566Z,14.90
2019-04-05T09:31:45.561Z,13.00
2019-04-05T09:32:45.556Z,16.10
2019-04-05T09:33:45.551Z,11.60
2019-04-05T09:34:45.543Z,12.50
2019-04-05T09:35:45.564Z,12.60
2019-04-05T09:36:45.535Z,13.00
2019-04-05T09:37:45.532Z,15.00
2019-04-05T09:38:45.566Z,13.50
2019-04-05T09:39:45.519Z,16.60
2019-04-05T09:40:45.515Z,14.40
2019-04-05T09:41:45.508Z,14.10
2019-04-05T09:42:45.502Z,15.60
2019-04-05T09:43:45.500Z,14.90
2019-04-05T09:44:45.494Z,17.10
2019-04-05T09:45:45.489Z,14.70
2019-04-05T09:46:49.331Z,12.80
2019-04-05T09:47:45.479Z,12.60
2019-04-05T09:48:45.474Z,17.60
2019-04-05T09:49:45.475Z,12.40
2019-04-05T09:50:45.462Z,15.70
2019-04-05T09:51:45.463Z,12.90
2019-04-05T09:52:45.453Z,14.00
2019-04-05T09:53:45.448Z,15.70
2019-04-05T09:54:45.443Z,14.40
2019-04-05T09:55:45.440Z,15.60
2019-04-05T09:56:45.434Z,17.20
2019-04-05T09:57:45.427Z,13.30
2019-04-05T09:58:45.424Z,16.70
2019-04-05T09:59:45.417Z,12.80
2019-04-05T10:00:45.413Z,18.20
2019-04-05T10:01:45.408Z,14.10
2019-04-05T10:02:45.403Z,12.30
2019-04-05T10:03:45.397Z,16.40
2019-04-05T10:04:45.396Z,18.40
2019-04-05T10:05:45.386Z,15.10
2019-04-05T10:06:45.383Z,14.40
2019-04-05T10:07:54.629Z,16.20
2019-04-05T10:08:45.372Z,11.10
2019-04-05T10:09:45.369Z,12.30
2019-04-05T10:10:45.365Z,11.60
2019-04-05T10:11:45.359Z,9.30
2019-04-05T10:12:45.353Z,11.10
2019-04-05T10:13:45.348Z,10.60
2019-04-05T10:14:45.346Z,13.70
2019-04-05T10:15:45.340Z,14.50
2019-04-05T10:16:45.339Z,10.70
2019-04-05T10:17:45.332Z,16.00
2019-04-05T10:18:45.325Z,9.70
2019-04-05T10:19:50.225Z,9.90
2019-04-05T10:20:45.316Z,12.20
2019-04-05T10:21:45.311Z,11.30
2019-04-05T10:22:45.308Z,11.30
2019-04-05T10:23:45.305Z,15.20
2019-04-05T10:24:45.300Z,14.40
2019-04-05T10:25:45.300Z,13.80
2019-04-05T10:26:45.294Z,10.10
2019-04-05T10:27:45.290Z,10.50
2019-04-05T10:28:45.282Z,11.80
2019-04-05T10:29:45.278Z,13.30
2019-04-05T10:30:45.273Z,9.70
2019-04-05T10:31:45.268Z,12.30
2019-04-05T10:32:46.316Z,14.30
2019-04-05T10:33:45.262Z,10.80
2019-04-05T10:34:45.256Z,14.30
2019-04-05T10:35:45.257Z,15.20
2019-04-05T10:36:45.244Z,13.00
2019-04-05T10:37:45.240Z,11.80
2019-04-05T10:38:45.238Z,12.20
2019-04-05T10:39:45.230Z,15.20
2019-04-05T10:40:45.225Z,14.40
2019-04-05T10:41:45.223Z,13.60
2019-04-05T10:42:45.217Z,10.00
2019-04-05T10:43:45.216Z,12.30
2019-04-05T10:44:45.209Z,13.40
2019-04-05T10:45:45.204Z,14.20
2019-04-05T10:46:45.198Z,11.30
2019-04-05T10:47:45.196Z,12.80
2019-04-05T10:48:45.191Z,14.60
2019-04-05T10:49:45.185Z,13.20
2019-04-05T10:50:45.183Z,9.30
2019-04-05T10:51:45.177Z,10.40
2019-04-05T10:52:45.171Z,10.90
2019-04-05T10:53:45.167Z,10.30
2019-04-05T10:54:45.164Z,12.40
2019-04-05T10:55:45.159Z,8.50
2019-04-05T10:56:45.154Z,11.10
2019-04-05T10:57:45.152Z,11.00
2019-04-05T10:58:45.146Z,9.10
2019-04-05T10:59:45.146Z,11.40
2019-04-05T11:00:45.138Z,11.80
2019-04-05T11:01:45.134Z,12.30
2019-04-05T11:02:45.128Z,16.60
2019-04-05T11:03:45.126Z,10.40
2019-04-05T11:04:45.121Z,14.70
2019-04-05T11:05:45.119Z,12.20
2019-04-05T11:06:45.111Z,10.40
2019-04-05T11:07:45.109Z,11.80
2019-04-05T11:08:45.102Z,13.20
2019-04-05T11:09:45.097Z,13.10
2019-04-05T11:10:45.118Z,13.60
2019-04-05T11:11:45.088Z,13.10
2019-04-05T11:12:45.084Z,13.30
2019-04-05T11:13:45.079Z,9.90
2019-04-05T11:14:45.075Z,13.10
2019-04-05T11:15:45.074Z,14.60
2019-04-05T11:16:57.551Z,15.10
2019-04-05T11:17:45.061Z,10.50
2019-04-05T11:18:45.250Z,12.70
2019-04-05T11:19:45.053Z,11.70
2019-04-05T11:20:45.049Z,14.80
2019-04-05T11:21:47.911Z,15.20
2019-04-05T11:22:46.724Z,11.30
2019-04-05T11:23:45.037Z,11.00
2019-04-05T11:24:45.031Z,11.20
2019-04-05T11:25:45.029Z,12.80
2019-04-05T11:26:45.027Z,10.30
2019-04-05T11:27:45.023Z,10.20
2019-04-05T11:28:45.016Z,10.10
2019-04-05T11:29:45.012Z,11.20
2019-04-05T11:30:45.019Z,8.10
2019-04-05T11:31:56.239Z,11.20
2019-04-05T11:32:45.000Z,11.40
2019-04-05T11:33:44.999Z,9.20
2019-04-05T11:34:44.995Z,10.60
2019-04-05T11:35:44.990Z,7.80
2019-04-05T11:36:44.984Z,14.30
2019-04-05T11:37:44.982Z,13.30
2019-04-05T11:38:44.978Z,9.70
2019-04-05T11:39:46.379Z,12.60
2019-04-05T11:40:44.974Z,10.90
2019-04-05T11:41:44.968Z,11.40
2019-04-05T11:42:44.963Z,9.50
2019-04-05T11:43:44.961Z,10.10
2019-04-05T11:44:44.957Z,13.30
2019-04-05T11:45:44.952Z,12.40
2019-04-05T11:46:44.948Z,13.20
2019-04-05T11:47:44.945Z,12.70
2019-04-05T11:48:44.941Z,13.20
2019-04-05T11:49:44.937Z,11.50
2019-04-05T11:50:44.936Z,14.30
2019-04-05T11:51:44.929Z,7.50
2019-04-05T11:52:44.930Z,11.70
2019-04-05T11:53:44.922Z,10.00
2019-04-05T11:54:46.067Z,11.40
2019-04-05T11:55:46.515Z,11.20
2019-04-05T11:56:44.911Z,11.50
2019-04-05T11:57:44.906Z,9.60
2019-04-05T11:58:44.904Z,10.00
2019-04-05T11:59:44.900Z,9.30
2019-04-05T12:00:44.894Z,8.60
2019-04-05T12:01:44.891Z,9.70
2019-04-05T12:02:44.888Z,6.40
2019-04-05T12:03:44.885Z,8.40
2019-04-05T12:04:44.881Z,8.20
2019-04-05T12:05:44.875Z,7.10
2019-04-05T12:06:44.871Z,6.60
2019-04-05T12:07:44.869Z,8.10
2019-04-05T12:08:44.868Z,8.90
2019-04-05T12:09:46.006Z,9.20
2019-04-05T12:10:44.856Z,7.60
2019-04-05T12:11:46.404Z,6.20
2019-04-05T12:12:44.848Z,6.70
2019-04-05T12:13:47.524Z,6.00
2019-04-05T12:14:44.840Z,8.20
2019-04-05T12:15:44.838Z,7.90
2019-04-05T12:16:44.833Z,5.90
2019-04-05T12:17:44.830Z,6.50
2019-04-05T12:18:44.827Z,5.90
2019-04-05T12:19:44.823Z,7.00
2019-04-05T12:20:52.309Z,6.20
2019-04-05T12:21:45.828Z,6.90
2019-04-05T12:22:44.813Z,5.40
2019-04-05T12:23:44.811Z,7.30
2019-04-05T12:24:47.490Z,6.90
2019-04-05T12:25:44.804Z,5.20
2019-04-05T12:26:44.802Z,8.60
2019-04-05T12:27:44.798Z,5.40
2019-04-05T12:28:44.793Z,5.70
2019-04-05T12:29:44.791Z,6.10
2019-04-05T12:30:46.116Z,7.90
2019-04-05T12:31:44.784Z,5.90
2019-04-05T12:32:46.639Z,7.40
2019-04-05T12:33:46.880Z,8.80
2019-04-05T12:34:44.773Z,4.90
2019-04-05T12:35:44.769Z,7.10
2019-04-05T12:36:44.768Z,6.20
2019-04-05T12:37:50.387Z,4.20
2019-04-05T12:38:44.763Z,5.60
2019-04-05T12:39:44.756Z,6.40
2019-04-05T12:40:44.752Z,6.50
2019-04-05T12:41:45.056Z,4.20
2019-04-05T12:42:44.748Z,4.90
2019-04-05T12:43:44.877Z,6.70
2019-04-05T12:44:45.099Z,4.10
2019-04-05T12:45:45.239Z,5.10
2019-04-05T12:46:45.893Z,6.00
2019-04-05T12:47:45.722Z,5.00
2019-04-05T12:48:46.248Z,5.30
2019-04-05T12:49:45.490Z,8.40
2019-04-05T12:50:45.369Z,5.00
2019-04-05T12:51:45.460Z,5.40
2019-04-05T12:52:44.712Z,5.00
2019-04-05T12:53:44.707Z,9.20
2019-04-05T12:54:44.707Z,5.60
2019-04-05T12:55:44.700Z,5.70
2019-04-05T12:56:44.897Z,5.30
2019-04-05T12:57:44.696Z,6.30
2019-04-05T12:58:44.691Z,5.10
2019-04-05T12:59:44.688Z,4.40
2019-04-05T13:00:44.682Z,5.70